createdAt,value
2019-01-29T00:01:15.234Z,101519.00
2019-01-29T00:03:48.746Z,101516.00
2019-01-29T00:06:22.341Z,101531.00
2019-01-29T00:08:56.022Z,101530.00
2019-01-29T00:11:29.534Z,101529.00
2019-01-29T00:14:02.965Z,101520.00
2019-01-29T00:16:36.552Z,101524.00
2019-01-29T00:19:10.155Z,101525.00
2019-01-29T00:21:44.030Z,101530.00
2019-01-29T00:24:17.560Z,101529.00
2019-01-29T00:26:51.260Z,101525.00
2019-01-29T00:29:24.763Z,101517.00
2019-01-29T00:31:58.312Z,101517.00
2019-01-29T00:34:32.012Z,101518.00
2019-01-29T00:37:05.464Z,101529.00
2019-01-29T00:39:39.293Z,101520.00
2019-01-29T00:42:12.817Z,101526.00
2019-01-29T00:44:46.370Z,101525.00
2019-01-29T00:47:20.308Z,101529.00
2019-01-29T00:49:54.505Z,101526.00
2019-01-29T00:52:28.257Z,101526.00
2019-01-29T00:55:01.585Z,101525.00
2019-01-29T00:57:35.701Z,101525.00
2019-01-29T01:00:11.521Z,101518.00
2019-01-29T01:02:45.038Z,101521.00
2019-01-29T01:05:19.040Z,101523.00
2019-01-29T01:07:52.961Z,101525.00
2019-01-29T01:10:26.575Z,101530.00
2019-01-29T01:13:00.579Z,101531.00
2019-01-29T01:15:34.234Z,101526.00
2019-01-29T01:18:07.922Z,101526.00
2019-01-29T01:20:41.699Z,101530.00
2019-01-29T01:23:15.944Z,101531.00
2019-01-29T01:25:49.307Z,101532.00
2019-01-29T01:28:22.403Z,101532.00
2019-01-29T01:30:55.318Z,101535.00
2019-01-29T01:33:28.732Z,101536.00
2019-01-29T01:36:02.181Z,101536.00
2019-01-29T01:38:36.430Z,101531.00
2019-01-29T01:41:09.201Z,101526.00
2019-01-29T01:43:42.373Z,101529.00
2019-01-29T01:46:15.239Z,101525.00
2019-01-29T01:48:48.742Z,101523.00
2019-01-29T01:51:21.866Z,101534.00
2019-01-29T01:53:55.010Z,101530.00
2019-01-29T01:56:27.809Z,101522.00
2019-01-29T01:59:00.995Z,101513.00
2019-01-29T02:01:33.771Z,101524.00
2019-01-29T02:04:06.967Z,101533.00
2019-01-29T02:06:40.147Z,101527.00
2019-01-29T02:09:13.588Z,101525.00
2019-01-29T02:11:47.300Z,101535.00
2019-01-29T02:14:20.344Z,101534.00
2019-01-29T02:16:53.752Z,101540.00
2019-01-29T02:19:27.256Z,101542.00
2019-01-29T02:22:02.000Z,101540.00
2019-01-29T02:24:35.461Z,101541.00
2019-01-29T02:27:09.477Z,101531.00
2019-01-29T02:29:43.185Z,101530.00
2019-01-29T02:32:16.002Z,101536.00
2019-01-29T02:34:49.350Z,101536.00
2019-01-29T02:37:22.117Z,101539.00
2019-01-29T02:39:55.135Z,101538.00
2019-01-29T02:42:28.111Z,101546.00
2019-01-29T02:45:00.990Z,101546.00
2019-01-29T02:47:34.123Z,101544.00
2019-01-29T02:50:07.693Z,101546.00
2019-01-29T02:52:41.290Z,101551.00
2019-01-29T02:55:16.279Z,101535.00
2019-01-29T02:57:49.442Z,101528.00
2019-01-29T03:00:23.851Z,101533.00
2019-01-29T03:02:57.212Z,101540.00
2019-01-29T03:05:30.149Z,101530.00
2019-01-29T03:08:03.176Z,101532.00
2019-01-29T03:10:36.173Z,101535.00
2019-01-29T03:13:09.575Z,101539.00
2019-01-29T03:15:42.480Z,101562.00
2019-01-29T03:18:15.370Z,101554.00
2019-01-29T03:20:48.229Z,101555.00
2019-01-29T03:23:27.224Z,101559.00
2019-01-29T03:25:56.118Z,101555.00
2019-01-29T03:28:29.278Z,101556.00
2019-01-29T03:31:02.228Z,101553.00
2019-01-29T03:33:35.191Z,101559.00
2019-01-29T03:36:08.033Z,101554.00
2019-01-29T03:38:42.374Z,101556.00
2019-01-29T03:41:15.640Z,101555.00
2019-01-29T03:43:48.870Z,101557.00
2019-01-29T03:46:21.795Z,101560.00
2019-01-29T03:48:55.285Z,101564.00
2019-01-29T03:51:29.103Z,101563.00
2019-01-29T03:54:02.454Z,101575.00
2019-01-29T03:56:35.857Z,101569.00
2019-01-29T03:59:09.162Z,101564.00
2019-01-29T04:01:42.344Z,101565.00
2019-01-29T04:04:15.169Z,101559.00
2019-01-29T04:06:48.179Z,101560.00
2019-01-29T04:09:21.376Z,101564.00
2019-01-29T04:11:54.611Z,101575.00
2019-01-29T04:14:27.604Z,101567.00
2019-01-29T04:17:00.684Z,101571.00
2019-01-29T04:19:33.665Z,101568.00
2019-01-29T04:22:06.602Z,101566.00
2019-01-29T04:24:39.659Z,101565.00
2019-01-29T04:27:13.082Z,101566.00
2019-01-29T04:29:46.084Z,101581.00
2019-01-29T04:32:19.223Z,101576.00
2019-01-29T04:34:52.102Z,101582.00
2019-01-29T04:37:25.692Z,101583.00
2019-01-29T04:39:58.573Z,101586.00
2019-01-29T04:42:32.024Z,101578.00
2019-01-29T04:45:04.995Z,101575.00
2019-01-29T04:47:38.143Z,101568.00
2019-01-29T04:50:13.236Z,101569.00
2019-01-29T04:52:46.523Z,101574.00
2019-01-29T04:55:20.843Z,101574.00
2019-01-29T04:57:54.053Z,101571.00
2019-01-29T05:00:28.306Z,101572.00
2019-01-29T05:03:01.694Z,101583.00
2019-01-29T05:05:34.992Z,101586.00
2019-01-29T05:08:08.222Z,101591.00
2019-01-29T05:10:41.116Z,101584.00
2019-01-29T05:13:14.246Z,101590.00
2019-01-29T05:15:47.518Z,101587.00
2019-01-29T05:18:20.373Z,101596.00
2019-01-29T05:20:53.986Z,101597.00
2019-01-29T05:23:26.833Z,101606.00
2019-01-29T05:26:00.191Z,101599.00
2019-01-29T05:28:33.110Z,101595.00
2019-01-29T05:31:06.157Z,101596.00
2019-01-29T05:33:39.089Z,101600.00
2019-01-29T05:36:12.362Z,101601.00
2019-01-29T05:38:45.277Z,101608.00
2019-01-29T05:41:18.374Z,101606.00
2019-01-29T05:43:51.447Z,101603.00
2019-01-29T05:46:25.249Z,101616.00
2019-01-29T05:48:58.404Z,101622.00
2019-01-29T05:51:35.625Z,101621.00
2019-01-29T05:54:15.815Z,101619.00
2019-01-29T05:56:43.323Z,101624.00
2019-01-29T05:59:16.169Z,101620.00
2019-01-29T06:01:49.090Z,101617.00
2019-01-29T06:04:21.872Z,101623.00
2019-01-29T06:06:54.865Z,101626.00
2019-01-29T06:09:27.863Z,101626.00
2019-01-29T06:12:02.176Z,101633.00
2019-01-29T06:14:35.101Z,101632.00
2019-01-29T06:17:08.829Z,101638.00
2019-01-29T06:19:41.861Z,101637.00
2019-01-29T06:22:15.029Z,101645.00
2019-01-29T06:24:48.068Z,101646.00
2019-01-29T06:27:21.381Z,101649.00
2019-01-29T06:29:54.599Z,101641.00
2019-01-29T06:32:28.051Z,101643.00
2019-01-29T06:35:02.480Z,101655.00
2019-01-29T06:37:35.614Z,101652.00
2019-01-29T06:40:11.061Z,101654.00
2019-01-29T06:42:44.365Z,101656.00
2019-01-29T06:45:19.943Z,101656.00
2019-01-29T06:47:53.122Z,101655.00
2019-01-29T06:50:27.686Z,101666.00
2019-01-29T06:53:01.318Z,101659.00
2019-01-29T06:55:34.322Z,101662.00
2019-01-29T06:58:07.664Z,101665.00
2019-01-29T07:00:40.386Z,101669.00
2019-01-29T07:03:14.197Z,101668.00
2019-01-29T07:05:47.286Z,101671.00
2019-01-29T07:08:20.848Z,101667.00
2019-01-29T07:10:53.706Z,101674.00
2019-01-29T07:13:26.767Z,101671.00
2019-01-29T07:16:00.811Z,101673.00
2019-01-29T07:18:35.606Z,101683.00
2019-01-29T07:21:09.843Z,101681.00
2019-01-29T07:23:42.931Z,101682.00
2019-01-29T07:26:15.678Z,101685.00
2019-01-29T07:28:48.656Z,101677.00
2019-01-29T07:31:21.447Z,101688.00
2019-01-29T07:34:03.349Z,101687.00
2019-01-29T07:36:40.503Z,101697.00
2019-01-29T07:39:13.873Z,101710.00
2019-01-29T07:41:46.704Z,101705.00
2019-01-29T07:44:19.729Z,101702.00
2019-01-29T07:46:52.702Z,101713.00
2019-01-29T07:49:25.565Z,101717.00
2019-01-29T07:51:58.545Z,101719.00
2019-01-29T07:54:33.447Z,101722.00
2019-01-29T07:57:07.085Z,101731.00
2019-01-29T07:59:40.121Z,101731.00
2019-01-29T08:02:13.081Z,101732.00
2019-01-29T08:04:45.838Z,101727.00
2019-01-29T08:07:19.241Z,101737.00
2019-01-29T08:09:52.048Z,101733.00
2019-01-29T08:12:25.646Z,101741.00
2019-01-29T08:14:58.750Z,101729.00
2019-01-29T08:17:31.777Z,101733.00
2019-01-29T08:20:05.185Z,101729.00
2019-01-29T08:22:38.213Z,101739.00
2019-01-29T08:25:15.398Z,101749.00
2019-01-29T08:27:48.693Z,101740.00
2019-01-29T08:30:22.268Z,101747.00
2019-01-29T08:32:55.353Z,101751.00
2019-01-29T08:35:28.433Z,101758.00
2019-01-29T08:38:01.731Z,101756.00
2019-01-29T08:40:34.598Z,101766.00
2019-01-29T08:43:07.695Z,101774.00
2019-01-29T08:45:40.688Z,101779.00
2019-01-29T08:48:14.843Z,101786.00
2019-01-29T08:50:47.792Z,101779.00
2019-01-29T08:53:20.838Z,101785.00
2019-01-29T08:55:53.975Z,101791.00
2019-01-29T08:58:27.680Z,101794.00
2019-01-29T09:01:00.715Z,101798.00
2019-01-29T09:03:33.828Z,101792.00
2019-01-29T09:06:06.824Z,101799.00
2019-01-29T09:08:41.307Z,101805.00
2019-01-29T09:11:14.212Z,101802.00
2019-01-29T09:13:47.352Z,101808.00
2019-01-29T09:16:20.143Z,101805.00
2019-01-29T09:18:53.443Z,101814.00
2019-01-29T09:21:26.609Z,101820.00
2019-01-29T09:24:00.792Z,101832.00
2019-01-29T09:26:33.720Z,101840.00
2019-01-29T09:29:06.728Z,101840.00
2019-01-29T09:31:39.866Z,101848.00
2019-01-29T09:34:13.085Z,101845.00
2019-01-29T09:36:45.861Z,101843.00
2019-01-29T09:39:18.961Z,101852.00
2019-01-29T09:41:51.933Z,101857.00
2019-01-29T09:44:25.182Z,101865.00
2019-01-29T09:46:58.073Z,101860.00
2019-01-29T09:49:31.111Z,101865.00
2019-01-29T09:52:03.950Z,101875.00
2019-01-29T09:54:37.168Z,101879.00
2019-01-29T09:57:10.175Z,101874.00
2019-01-29T09:59:43.414Z,101873.00
2019-01-29T10:02:16.333Z,101870.00
2019-01-29T10:04:49.337Z,101878.00
2019-01-29T10:07:24.657Z,101880.00
2019-01-29T10:09:57.733Z,101880.00
2019-01-29T10:12:30.514Z,101878.00
2019-01-29T10:15:03.486Z,101884.00
2019-01-29T10:17:36.692Z,101882.00
2019-01-29T10:20:10.385Z,101885.00
2019-01-29T10:22:43.241Z,101893.00
2019-01-29T10:25:17.645Z,101887.00
2019-01-29T10:27:50.686Z,101887.00
2019-01-29T10:30:25.862Z,101892.00
2019-01-29T10:32:58.701Z,101882.00
2019-01-29T10:35:32.580Z,101889.00
2019-01-29T10:38:05.596Z,101886.00
2019-01-29T10:40:38.734Z,101879.00
2019-01-29T10:43:11.473Z,101885.00
2019-01-29T10:45:44.437Z,101880.00
2019-01-29T10:48:17.433Z,101885.00
2019-01-29T10:50:50.642Z,101888.00
2019-01-29T10:53:23.422Z,101881.00
2019-01-29T10:55:56.525Z,101887.00
2019-01-29T10:58:30.399Z,101889.00
2019-01-29T11:01:03.745Z,101884.00
2019-01-29T11:03:36.598Z,101888.00
2019-01-29T11:06:09.431Z,101883.00
2019-01-29T11:08:42.584Z,101883.00
2019-01-29T11:11:16.488Z,101884.00
2019-01-29T11:13:49.371Z,101889.00
2019-01-29T11:16:22.365Z,101879.00
2019-01-29T11:19:15.022Z,101877.00
2019-01-29T11:21:48.489Z,101870.00
2019-01-29T11:24:21.419Z,101880.00
2019-01-29T11:26:54.371Z,101878.00
2019-01-29T11:29:27.172Z,101873.00
2019-01-29T11:32:00.242Z,101880.00
2019-01-29T11:34:33.133Z,101883.00
2019-01-29T11:37:06.426Z,101883.00
2019-01-29T11:39:40.518Z,101886.00
2019-01-29T11:42:13.520Z,101883.00
2019-01-29T11:44:46.199Z,101887.00
2019-01-29T11:47:19.295Z,101877.00
2019-01-29T11:49:52.083Z,101871.00
2019-01-29T11:52:24.878Z,101878.00
2019-01-29T11:54:57.652Z,101882.00
2019-01-29T11:57:30.496Z,101884.00
2019-01-29T12:00:03.428Z,101895.00
2019-01-29T12:02:36.609Z,101889.00
2019-01-29T12:05:09.769Z,101897.00
2019-01-29T12:07:42.703Z,101895.00
2019-01-29T12:10:15.674Z,101891.00
2019-01-29T12:12:48.692Z,101889.00
2019-01-29T12:15:25.827Z,101888.00
2019-01-29T12:17:58.702Z,101887.00
2019-01-29T12:20:31.734Z,101880.00
2019-01-29T12:23:05.174Z,101887.00
2019-01-29T12:25:38.007Z,101886.00
2019-01-29T12:28:10.963Z,101882.00
2019-01-29T12:30:43.759Z,101884.00
2019-01-29T12:33:16.825Z,101884.00
2019-01-29T12:35:49.740Z,101891.00
2019-01-29T12:38:22.732Z,101887.00
2019-01-29T12:40:55.392Z,101884.00
2019-01-29T12:43:28.301Z,101884.00
2019-01-29T12:46:01.350Z,101886.00
2019-01-29T12:48:34.253Z,101882.00
2019-01-29T12:51:08.303Z,101869.00
2019-01-29T12:53:41.052Z,101870.00
2019-01-29T12:56:21.434Z,101877.00
2019-01-29T12:58:48.254Z,101882.00
2019-01-29T13:01:21.222Z,101882.00
2019-01-29T13:03:54.014Z,101884.00
2019-01-29T13:06:27.306Z,101890.00
2019-01-29T13:09:00.315Z,101877.00
2019-01-29T13:11:33.379Z,101879.00
2019-01-29T13:14:06.468Z,101877.00
2019-01-29T13:16:39.659Z,101870.00
2019-01-29T13:19:12.552Z,101870.00
2019-01-29T13:21:45.659Z,101869.00
2019-01-29T13:24:18.524Z,101870.00
2019-01-29T13:26:52.017Z,101869.00
2019-01-29T13:29:25.132Z,101872.00
2019-01-29T13:31:58.097Z,101861.00
2019-01-29T13:34:30.893Z,101874.00
2019-01-29T13:37:04.187Z,101869.00
2019-01-29T13:39:37.077Z,101871.00
2019-01-29T13:42:09.969Z,101865.00
2019-01-29T13:44:43.030Z,101873.00
2019-01-29T13:47:15.802Z,101879.00
2019-01-29T13:49:48.815Z,101876.00
2019-01-29T13:52:21.575Z,101872.00
2019-01-29T13:54:54.695Z,101869.00
2019-01-29T13:57:27.552Z,101865.00
2019-01-29T14:00:00.527Z,101864.00
2019-01-29T14:02:33.525Z,101865.00
2019-01-29T14:05:06.601Z,101870.00
2019-01-29T14:07:39.502Z,101879.00
2019-01-29T14:10:14.653Z,101873.00
2019-01-29T14:12:47.520Z,101876.00
2019-01-29T14:15:28.534Z,101883.00
2019-01-29T14:18:01.299Z,101876.00
2019-01-29T14:20:34.191Z,101892.00
2019-01-29T14:23:08.201Z,101891.00
2019-01-29T14:25:41.125Z,101891.00
2019-01-29T14:28:14.250Z,101892.00
2019-01-29T14:30:47.026Z,101901.00
2019-01-29T14:33:20.034Z,101896.00
2019-01-29T14:35:53.019Z,101887.00
2019-01-29T14:38:34.455Z,101898.00
2019-01-29T14:41:07.259Z,101890.00
2019-01-29T14:43:42.074Z,101889.00
2019-01-29T14:46:15.000Z,101898.00
2019-01-29T14:48:48.247Z,101899.00
2019-01-29T14:51:21.369Z,101910.00
2019-01-29T14:53:54.246Z,101911.00
2019-01-29T14:56:27.208Z,101905.00
2019-01-29T14:59:00.418Z,101903.00
2019-01-29T15:01:33.737Z,101905.00
2019-01-29T15:04:06.902Z,101905.00
2019-01-29T15:06:39.910Z,101923.00
2019-01-29T15:09:12.865Z,101913.00
2019-01-29T15:11:45.675Z,101904.00
2019-01-29T15:14:19.075Z,101910.00
2019-01-29T15:16:53.079Z,101911.00
2019-01-29T15:19:26.564Z,101901.00
2019-01-29T15:21:59.522Z,101896.00
2019-01-29T15:24:32.459Z,101900.00
2019-01-29T15:27:06.055Z,101905.00
2019-01-29T15:29:39.040Z,101900.00
2019-01-29T15:32:12.036Z,101897.00
2019-01-29T15:34:44.817Z,101908.00
2019-01-29T15:37:18.110Z,101903.00
2019-01-29T15:39:50.865Z,101907.00
2019-01-29T15:42:23.761Z,101902.00
2019-01-29T15:44:56.656Z,101908.00
2019-01-29T15:47:29.416Z,101910.00
2019-01-29T15:50:02.320Z,101910.00
2019-01-29T15:52:35.845Z,101903.00
2019-01-29T15:55:10.752Z,101907.00
2019-01-29T15:57:43.672Z,101909.00
2019-01-29T16:00:20.824Z,101909.00
2019-01-29T16:02:53.732Z,101919.00
2019-01-29T16:05:28.566Z,101908.00
2019-01-29T16:08:01.612Z,101916.00
2019-01-29T16:10:39.866Z,101913.00
2019-01-29T16:13:11.348Z,101912.00
2019-01-29T16:15:44.684Z,101921.00
2019-01-29T16:18:18.782Z,101925.00
2019-01-29T16:20:51.674Z,101927.00
2019-01-29T16:23:24.861Z,101912.00
2019-01-29T16:25:57.661Z,101925.00
2019-01-29T16:28:30.498Z,101923.00
2019-01-29T16:31:03.474Z,101924.00
2019-01-29T16:33:36.711Z,101925.00
2019-01-29T16:36:09.594Z,101926.00
2019-01-29T16:38:42.566Z,101923.00
2019-01-29T16:41:15.352Z,101920.00
2019-01-29T16:43:48.348Z,101924.00
2019-01-29T16:46:21.135Z,101925.00
2019-01-29T16:48:54.732Z,101937.00
2019-01-29T16:51:27.720Z,101949.00
2019-01-29T16:54:00.701Z,101956.00
2019-01-29T16:56:33.484Z,101952.00
2019-01-29T16:59:07.596Z,101950.00
2019-01-29T17:01:41.517Z,101961.00
2019-01-29T17:04:15.563Z,101962.00
2019-01-29T17:06:52.532Z,101968.00
2019-01-29T17:09:26.428Z,101962.00
2019-01-29T17:11:59.604Z,101969.00
2019-01-29T17:14:32.588Z,101963.00
2019-01-29T17:17:07.212Z,101971.00
2019-01-29T17:19:40.139Z,101977.00
2019-01-29T17:22:15.580Z,101974.00
2019-01-29T17:24:49.579Z,101979.00
2019-01-29T17:27:22.471Z,101982.00
2019-01-29T17:29:55.636Z,101982.00
2019-01-29T17:32:30.810Z,101984.00
2019-01-29T17:35:04.916Z,101979.00
2019-01-29T17:37:38.944Z,101983.00
2019-01-29T17:40:17.083Z,101982.00
2019-01-29T17:42:49.991Z,101978.00
2019-01-29T17:45:25.180Z,101977.00
2019-01-29T17:47:59.453Z,101984.00
2019-01-29T17:50:34.541Z,101995.00
2019-01-29T17:53:07.564Z,101997.00
2019-01-29T17:55:41.552Z,101990.00
2019-01-29T17:58:14.675Z,101997.00
2019-01-29T18:00:48.714Z,102006.00
2019-01-29T18:03:21.865Z,101998.00
2019-01-29T18:05:55.041Z,102008.00
2019-01-29T18:08:28.042Z,102002.00
2019-01-29T18:11:01.477Z,102010.00
2019-01-29T18:13:35.036Z,102004.00
2019-01-29T18:16:08.024Z,102016.00
2019-01-29T18:18:40.913Z,102017.00
2019-01-29T18:21:14.572Z,102016.00
2019-01-29T18:23:52.227Z,102019.00
2019-01-29T18:26:25.562Z,102020.00
2019-01-29T18:28:58.700Z,102019.00
2019-01-29T18:31:31.492Z,102019.00
2019-01-29T18:34:04.455Z,102021.00
2019-01-29T18:36:37.268Z,102023.00
2019-01-29T18:39:11.224Z,102022.00
2019-01-29T18:41:44.040Z,102015.00
2019-01-29T18:44:17.023Z,102028.00
2019-01-29T18:46:49.805Z,102034.00
2019-01-29T18:49:22.709Z,102028.00
2019-01-29T18:51:55.701Z,102041.00
2019-01-29T18:54:29.660Z,102040.00
2019-01-29T18:57:02.574Z,102041.00
2019-01-29T18:59:35.473Z,102043.00
2019-01-29T19:02:08.453Z,102049.00
2019-01-29T19:04:41.658Z,102052.00
2019-01-29T19:07:14.524Z,102044.00
2019-01-29T19:09:47.605Z,102059.00
2019-01-29T19:12:20.394Z,102047.00
2019-01-29T19:14:53.461Z,102058.00
2019-01-29T19:17:26.238Z,102065.00
2019-01-29T19:19:59.226Z,102059.00
2019-01-29T19:22:32.006Z,102063.00
2019-01-29T19:25:05.070Z,102057.00
2019-01-29T19:27:38.123Z,102064.00
2019-01-29T19:30:12.955Z,102069.00
2019-01-29T19:32:45.805Z,102068.00
2019-01-29T19:35:18.778Z,102070.00
2019-01-29T19:37:51.574Z,102077.00
2019-01-29T19:40:24.642Z,102080.00
2019-01-29T19:42:57.551Z,102077.00
2019-01-29T19:45:36.169Z,102088.00
2019-01-29T19:48:10.973Z,102091.00
2019-01-29T19:50:44.431Z,102097.00
2019-01-29T19:53:17.289Z,102090.00
2019-01-29T19:55:49.983Z,102094.00
2019-01-29T19:58:31.780Z,102101.00
2019-01-29T20:00:57.064Z,102101.00
2019-01-29T20:03:30.034Z,102110.00
2019-01-29T20:06:02.822Z,102103.00
2019-01-29T20:08:35.820Z,102098.00
2019-01-29T20:11:08.796Z,102106.00
2019-01-29T20:13:41.886Z,102095.00
2019-01-29T20:16:14.785Z,102109.00
2019-01-29T20:18:49.055Z,102110.00
2019-01-29T20:21:21.572Z,102114.00
2019-01-29T20:23:54.538Z,102105.00
2019-01-29T20:26:27.492Z,102096.00
2019-01-29T20:29:00.576Z,102099.00
2019-01-29T20:31:33.687Z,102104.00
2019-01-29T20:34:06.599Z,102092.00
2019-01-29T20:36:39.804Z,102099.00
2019-01-29T20:39:12.769Z,102099.00
2019-01-29T20:41:47.759Z,102099.00
2019-01-29T20:44:20.702Z,102093.00
2019-01-29T20:46:54.490Z,102101.00
2019-01-29T20:49:27.501Z,102090.00
2019-01-29T20:52:01.469Z,102099.00
2019-01-29T20:54:34.242Z,102093.00
2019-01-29T20:57:07.248Z,102095.00
2019-01-29T20:59:40.913Z,102099.00
2019-01-29T21:02:13.707Z,102098.00
2019-01-29T21:04:46.683Z,102084.00
2019-01-29T21:07:19.687Z,102082.00
2019-01-29T21:09:52.654Z,102083.00
2019-01-29T21:12:25.458Z,102081.00
2019-01-29T21:15:00.917Z,102080.00
2019-01-29T21:17:32.654Z,102085.00
2019-01-29T21:20:24.819Z,102086.00
2019-01-29T21:22:57.877Z,102087.00
2019-01-29T21:25:30.656Z,102090.00
2019-01-29T21:28:03.626Z,102088.00
2019-01-29T21:30:38.101Z,102091.00
2019-01-29T21:33:11.025Z,102091.00
2019-01-29T21:35:43.823Z,102101.00
2019-01-29T21:38:16.923Z,102099.00
2019-01-29T21:40:49.806Z,102109.00
2019-01-29T21:43:22.763Z,102103.00
2019-01-29T21:45:55.651Z,102101.00
2019-01-29T21:48:28.763Z,102103.00
2019-01-29T21:51:01.549Z,102096.00
2019-01-29T21:53:34.529Z,102095.00
2019-01-29T21:56:07.293Z,102090.00
2019-01-29T21:58:40.092Z,102096.00
2019-01-29T22:01:13.702Z,102091.00
2019-01-29T22:03:46.347Z,102094.00
2019-01-29T22:06:20.216Z,102085.00
2019-01-29T22:08:53.097Z,102086.00
2019-01-29T22:11:26.053Z,102088.00
2019-01-29T22:14:00.637Z,102092.00
2019-01-29T22:16:33.036Z,102091.00
2019-01-29T22:19:05.715Z,102092.00
2019-01-29T22:21:38.865Z,102089.00
2019-01-29T22:24:11.813Z,102105.00
2019-01-29T22:26:44.922Z,102113.00
2019-01-29T22:29:23.169Z,102107.00
2019-01-29T22:31:51.875Z,102099.00
2019-01-29T22:34:24.777Z,102094.00
2019-01-29T22:36:57.770Z,102095.00
2019-01-29T22:39:30.541Z,102092.00
2019-01-29T22:42:04.015Z,102078.00
2019-01-29T22:44:36.926Z,102082.00
2019-01-29T22:47:09.918Z,102077.00
2019-01-29T22:49:42.687Z,102073.00
2019-01-29T22:52:16.671Z,102101.00
2019-01-29T22:54:49.487Z,102057.00
2019-01-29T22:57:22.399Z,102064.00
2019-01-29T22:59:55.470Z,102098.00
2019-01-29T23:02:28.440Z,102061.00
2019-01-29T23:05:01.240Z,102068.00
2019-01-29T23:07:34.817Z,102064.00
2019-01-29T23:10:10.373Z,102063.00
2019-01-29T23:12:43.141Z,102062.00
2019-01-29T23:15:17.989Z,102065.00
2019-01-29T23:17:52.974Z,102071.00
2019-01-29T23:20:26.209Z,102069.00
2019-01-29T23:22:59.222Z,102066.00
2019-01-29T23:25:34.093Z,102064.00
2019-01-29T23:28:07.546Z,102060.00
2019-01-29T23:30:41.134Z,102069.00
2019-01-29T23:33:14.535Z,102101.00
2019-01-29T23:35:47.383Z,102101.00
2019-01-29T23:38:21.930Z,102098.00
2019-01-29T23:40:56.120Z,102093.00
2019-01-29T23:43:28.925Z,102071.00
2019-01-29T23:46:01.913Z,102063.00
2019-01-29T23:48:35.109Z,102065.00
2019-01-29T23:51:08.085Z,102075.00
2019-01-29T23:53:40.758Z,102068.00
2019-01-29T23:56:14.256Z,102070.00
2019-01-29T23:58:47.058Z,102082.00
